sensor_id;sensor_type;location;lat;lon;timestamp;temperature;humidity
63537;DHT22;49686;51.880;5.632;2023-01-10T00:00:07;2.60;99.90
63537;DHT22;49686;51.880;5.632;2023-01-10T00:02:35;2.80;99.90
63537;DHT22;49686;51.880;5.632;2023-01-10T00:05:02;2.90;99.90
63537;DHT22;49686;51.880;5.632;2023-01-10T00:07:29;2.90;99.90
63537;DHT22;49686;51.880;5.632;2023-01-10T00:09:56;2.90;99.90
63537;DHT22;49686;51.880;5.632;2023-01-10T00:12:25;2.80;99.90
63537;DHT22;49686;51.880;5.632;2023-01-10T00:14:52;2.80;99.90
63537;DHT22;49686;51.880;5.632;2023-01-10T00:17:19;2.80;99.90
63537;DHT22;49686;51.880;5.632;2023-01-10T00:19:47;3.20;99.90
63537;DHT22;49686;51.880;5.632;2023-01-10T00:22:14;3.10;99.90
63537;DHT22;49686;51.880;5.632;2023-01-10T00:24:40;3.20;99.90
63537;DHT22;49686;51.880;5.632;2023-01-10T00:27:07;3.30;99.90
63537;DHT22;49686;51.880;5.632;2023-01-10T00:29:34;3.00;99.90
63537;DHT22;49686;51.880;5.632;2023-01-10T00:32:01;3.20;99.90
63537;DHT22;49686;51.880;5.632;2023-01-10T00:34:28;3.30;99.90
63537;DHT22;49686;51.880;5.632;2023-01-10T00:36:56;3.20;99.90
63537;DHT22;49686;51.880;5.632;2023-01-10T00:39:22;3.10;99.90
63537;DHT22;49686;51.880;5.632;2023-01-10T00:41:49;2.90;99.90
63537;DHT22;49686;51.880;5.632;2023-01-10T00:44:16;3.20;99.90
63537;DHT22;49686;51.880;5.632;2023-01-10T00:46:43;3.00;99.90
63537;DHT22;49686;51.880;5.632;2023-01-10T00:49:10;2.90;99.90
63537;DHT22;49686;51.880;5.632;2023-01-10T00:51:37;2.70;99.90
63537;DHT22;49686;51.880;5.632;2023-01-10T00:54:05;2.60;99.90
63537;DHT22;49686;51.880;5.632;2023-01-10T00:56:32;2.50;99.90
63537;DHT22;49686;51.880;5.632;2023-01-10T00:58:58;2.60;99.90
63537;DHT22;49686;51.880;5.632;2023-01-10T01:01:25;2.50;99.90
63537;DHT22;49686;51.880;5.632;2023-01-10T01:03:52;2.50;99.90
63537;DHT22;49686;51.880;5.632;2023-01-10T01:06:19;2.50;99.90
63537;DHT22;49686;51.880;5.632;2023-01-10T01:08:46;2.50;99.90
63537;DHT22;49686;51.880;5.632;2023-01-10T01:11:14;2.60;99.90
63537;DHT22;49686;51.880;5.632;2023-01-10T01:13:41;2.90;99.90
63537;DHT22;49686;51.880;5.632;2023-01-10T01:16:08;2.90;99.90
63537;DHT22;49686;51.880;5.632;2023-01-10T01:18:34;3.00;99.90
63537;DHT22;49686;51.880;5.632;2023-01-10T01:21:01;3.00;99.90
63537;DHT22;49686;51.880;5.632;2023-01-10T01:23:28;3.10;99.90
63537;DHT22;49686;51.880;5.632;2023-01-10T01:25:55;3.20;99.90
63537;DHT22;49686;51.880;5.632;2023-01-10T01:28:24;3.20;99.90
63537;DHT22;49686;51.880;5.632;2023-01-10T01:30:50;3.30;99.90
63537;DHT22;49686;51.880;5.632;2023-01-10T01:33:18;3.30;99.90
63537;DHT22;49686;51.880;5.632;2023-01-10T01:35:47;3.30;99.90
63537;DHT22;49686;51.880;5.632;2023-01-10T01:38:15;3.30;99.90
63537;DHT22;49686;51.880;5.632;2023-01-10T01:40:42;3.50;99.90
63537;DHT22;49686;51.880;5.632;2023-01-10T01:43:20;3.30;99.90
63537;DHT22;49686;51.880;5.632;2023-01-10T01:45:49;3.30;99.90
63537;DHT22;49686;51.880;5.632;2023-01-10T01:48:27;3.20;99.90
63537;DHT22;49686;51.880;5.632;2023-01-10T01:50:59;3.10;99.90
63537;DHT22;49686;51.880;5.632;2023-01-10T01:53:30;2.90;99.90
63537;DHT22;49686;51.880;5.632;2023-01-10T01:56:01;3.00;99.90
63537;DHT22;49686;51.880;5.632;2023-01-10T01:58:34;3.00;99.90
63537;DHT22;49686;51.880;5.632;2023-01-10T02:01:05;3.10;99.90
63537;DHT22;49686;51.880;5.632;2023-01-10T02:03:32;3.20;99.90
63537;DHT22;49686;51.880;5.632;2023-01-10T02:05:59;3.20;99.90
63537;DHT22;49686;51.880;5.632;2023-01-10T02:08:26;3.30;99.90
63537;DHT22;49686;51.880;5.632;2023-01-10T02:10:57;3.40;99.90
63537;DHT22;49686;51.880;5.632;2023-01-10T02:13:25;3.30;99.90
63537;DHT22;49686;51.880;5.632;2023-01-10T02:15:53;3.30;99.90
63537;DHT22;49686;51.880;5.632;2023-01-10T02:18:21;3.40;99.90
63537;DHT22;49686;51.880;5.632;2023-01-10T02:21:02;3.40;99.90
63537;DHT22;49686;51.880;5.632;2023-01-10T02:30:07;3.40;99.90
63537;DHT22;49686;51.880;5.632;2023-01-10T02:32:43;3.30;99.90
63537;DHT22;49686;51.880;5.632;2023-01-10T02:35:41;3.40;99.90
63537;DHT22;49686;51.880;5.632;2023-01-10T02:38:18;3.30;99.90
63537;DHT22;49686;51.880;5.632;2023-01-10T02:40:54;3.30;99.90
63537;DHT22;49686;51.880;5.632;2023-01-10T02:43:29;3.30;99.90
63537;DHT22;49686;51.880;5.632;2023-01-10T02:45:59;3.30;99.90
63537;DHT22;49686;51.880;5.632;2023-01-10T02:48:30;3.30;99.90
63537;DHT22;49686;51.880;5.632;2023-01-10T02:51:00;3.20;99.90
63537;DHT22;49686;51.880;5.632;2023-01-10T02:53:32;3.10;99.90
63537;DHT22;49686;51.880;5.632;2023-01-10T03:02:21;2.90;99.90
63537;DHT22;49686;51.880;5.632;2023-01-10T03:05:03;3.00;99.90
63537;DHT22;49686;51.880;5.632;2023-01-10T03:07:37;3.00;99.90
63537;DHT22;49686;51.880;5.632;2023-01-10T03:10:07;3.20;99.90
63537;DHT22;49686;51.880;5.632;2023-01-10T03:12:40;3.20;99.90
63537;DHT22;49686;51.880;5.632;2023-01-10T03:15:09;3.30;99.90
63537;DHT22;49686;51.880;5.632;2023-01-10T03:17:39;3.30;99.90
63537;DHT22;49686;51.880;5.632;2023-01-10T03:20:10;3.20;99.90
63537;DHT22;49686;51.880;5.632;2023-01-10T03:22:38;3.20;99.90
63537;DHT22;49686;51.880;5.632;2023-01-10T03:25:10;3.30;99.90
63537;DHT22;49686;51.880;5.632;2023-01-10T03:27:43;3.30;99.90
63537;DHT22;49686;51.880;5.632;2023-01-10T03:30:20;3.30;99.90
63537;DHT22;49686;51.880;5.632;2023-01-10T03:32:49;3.40;99.90
63537;DHT22;49686;51.880;5.632;2023-01-10T03:35:19;3.40;99.90
63537;DHT22;49686;51.880;5.632;2023-01-10T03:37:54;3.40;99.90
63537;DHT22;49686;51.880;5.632;2023-01-10T03:40:29;3.50;99.90
63537;DHT22;49686;51.880;5.632;2023-01-10T03:43:01;3.40;99.90
63537;DHT22;49686;51.880;5.632;2023-01-10T03:45:35;3.40;99.90
63537;DHT22;49686;51.880;5.632;2023-01-10T03:48:04;3.30;99.90
63537;DHT22;49686;51.880;5.632;2023-01-10T03:50:34;3.30;99.90
63537;DHT22;49686;51.880;5.632;2023-01-10T03:53:01;3.20;99.90
63537;DHT22;49686;51.880;5.632;2023-01-10T03:55:29;3.10;99.90
63537;DHT22;49686;51.880;5.632;2023-01-10T03:57:56;3.10;99.90
63537;DHT22;49686;51.880;5.632;2023-01-10T04:00:23;3.00;99.90
63537;DHT22;49686;51.880;5.632;2023-01-10T04:02:50;2.90;99.90
63537;DHT22;49686;51.880;5.632;2023-01-10T04:05:16;2.90;99.90
63537;DHT22;49686;51.880;5.632;2023-01-10T04:07:45;2.80;99.90
63537;DHT22;49686;51.880;5.632;2023-01-10T04:10:12;2.80;99.90
63537;DHT22;49686;51.880;5.632;2023-01-10T04:12:38;2.80;99.90
63537;DHT22;49686;51.880;5.632;2023-01-10T04:15:06;2.80;99.90
63537;DHT22;49686;51.880;5.632;2023-01-10T04:17:33;3.00;99.90
63537;DHT22;49686;51.880;5.632;2023-01-10T04:20:00;3.00;99.90
63537;DHT22;49686;51.880;5.632;2023-01-10T04:22:28;3.20;99.90
63537;DHT22;49686;51.880;5.632;2023-01-10T04:24:56;3.20;99.90
63537;DHT22;49686;51.880;5.632;2023-01-10T04:27:22;3.30;99.90
63537;DHT22;49686;51.880;5.632;2023-01-10T04:29:49;3.30;99.90
63537;DHT22;49686;51.880;5.632;2023-01-10T04:32:16;3.40;99.90
63537;DHT22;49686;51.880;5.632;2023-01-10T04:34:43;3.40;99.90
63537;DHT22;49686;51.880;5.632;2023-01-10T04:37:09;3.40;99.90
63537;DHT22;49686;51.880;5.632;2023-01-10T04:39:36;3.40;99.90
63537;DHT22;49686;51.880;5.632;2023-01-10T04:42:04;3.40;99.90
63537;DHT22;49686;51.880;5.632;2023-01-10T04:44:31;3.30;99.90
63537;DHT22;49686;51.880;5.632;2023-01-10T04:46:58;3.30;99.90
63537;DHT22;49686;51.880;5.632;2023-01-10T04:49:24;3.40;99.90
63537;DHT22;49686;51.880;5.632;2023-01-10T04:51:51;3.40;99.90
63537;DHT22;49686;51.880;5.632;2023-01-10T04:54:19;3.50;99.90
63537;DHT22;49686;51.880;5.632;2023-01-10T04:56:46;3.40;99.90
63537;DHT22;49686;51.880;5.632;2023-01-10T04:59:15;3.40;99.90
63537;DHT22;49686;51.880;5.632;2023-01-10T05:01:42;3.40;99.90
63537;DHT22;49686;51.880;5.632;2023-01-10T05:04:09;3.50;99.90
63537;DHT22;49686;51.880;5.632;2023-01-10T05:06:36;3.50;99.90
63537;DHT22;49686;51.880;5.632;2023-01-10T05:09:02;3.50;99.90
63537;DHT22;49686;51.880;5.632;2023-01-10T05:11:29;3.50;99.90
63537;DHT22;49686;51.880;5.632;2023-01-10T05:13:56;3.40;99.90
63537;DHT22;49686;51.880;5.632;2023-01-10T05:16:24;3.40;99.90
63537;DHT22;49686;51.880;5.632;2023-01-10T05:18:51;3.30;99.90
63537;DHT22;49686;51.880;5.632;2023-01-10T05:21:18;3.20;99.90
63537;DHT22;49686;51.880;5.632;2023-01-10T05:23:45;3.20;99.90
63537;DHT22;49686;51.880;5.632;2023-01-10T05:26:13;3.10;99.90
63537;DHT22;49686;51.880;5.632;2023-01-10T05:28:41;2.90;99.90
63537;DHT22;49686;51.880;5.632;2023-01-10T05:31:10;2.90;99.90
63537;DHT22;49686;51.880;5.632;2023-01-10T05:33:43;2.80;99.90
63537;DHT22;49686;51.880;5.632;2023-01-10T05:36:10;2.80;99.90
63537;DHT22;49686;51.880;5.632;2023-01-10T05:38:37;2.80;99.90
63537;DHT22;49686;51.880;5.632;2023-01-10T05:41:04;2.80;99.90
63537;DHT22;49686;51.880;5.632;2023-01-10T05:43:30;2.80;99.90
63537;DHT22;49686;51.880;5.632;2023-01-10T05:45:57;2.90;99.90
63537;DHT22;49686;51.880;5.632;2023-01-10T05:48:24;2.90;99.90
63537;DHT22;49686;51.880;5.632;2023-01-10T05:50:52;3.00;99.90
63537;DHT22;49686;51.880;5.632;2023-01-10T05:53:19;3.00;99.90
63537;DHT22;49686;51.880;5.632;2023-01-10T05:55:53;3.00;99.90
63537;DHT22;49686;51.880;5.632;2023-01-10T05:58:20;3.20;99.90
63537;DHT22;49686;51.880;5.632;2023-01-10T06:00:46;3.30;99.90
63537;DHT22;49686;51.880;5.632;2023-01-10T06:03:13;3.30;99.90
63537;DHT22;49686;51.880;5.632;2023-01-10T06:05:40;3.30;99.90
63537;DHT22;49686;51.880;5.632;2023-01-10T06:08:08;3.40;99.90
63537;DHT22;49686;51.880;5.632;2023-01-10T06:10:35;3.30;99.90
63537;DHT22;49686;51.880;5.632;2023-01-10T06:13:02;3.30;99.90
63537;DHT22;49686;51.880;5.632;2023-01-10T06:15:29;3.30;99.90
63537;DHT22;49686;51.880;5.632;2023-01-10T06:17:56;3.30;99.90
63537;DHT22;49686;51.880;5.632;2023-01-10T06:20:22;3.30;99.90
63537;DHT22;49686;51.880;5.632;2023-01-10T06:22:49;3.30;99.90
63537;DHT22;49686;51.880;5.632;2023-01-10T06:25:17;3.30;99.90
63537;DHT22;49686;51.880;5.632;2023-01-10T06:27:44;3.40;99.90
63537;DHT22;49686;51.880;5.632;2023-01-10T06:30:12;3.30;99.90
63537;DHT22;49686;51.880;5.632;2023-01-10T06:32:39;3.30;99.90
63537;DHT22;49686;51.880;5.632;2023-01-10T06:35:07;3.50;99.90
63537;DHT22;49686;51.880;5.632;2023-01-10T06:37:33;3.40;99.90
63537;DHT22;49686;51.880;5.632;2023-01-10T06:40:00;3.40;99.90
63537;DHT22;49686;51.880;5.632;2023-01-10T06:42:28;3.40;99.90
63537;DHT22;49686;51.880;5.632;2023-01-10T06:44:55;3.40;99.90
63537;DHT22;49686;51.880;5.632;2023-01-10T06:47:22;3.40;99.90
63537;DHT22;49686;51.880;5.632;2023-01-10T06:49:49;3.50;99.90
63537;DHT22;49686;51.880;5.632;2023-01-10T06:52:15;3.50;99.90
63537;DHT22;49686;51.880;5.632;2023-01-10T06:54:42;3.50;99.90
63537;DHT22;49686;51.880;5.632;2023-01-10T06:57:09;3.40;99.90
63537;DHT22;49686;51.880;5.632;2023-01-10T06:59:37;3.40;99.90
63537;DHT22;49686;51.880;5.632;2023-01-10T07:02:04;3.40;99.90
63537;DHT22;49686;51.880;5.632;2023-01-10T07:04:31;3.40;99.90
63537;DHT22;49686;51.880;5.632;2023-01-10T07:06:57;3.40;99.90
63537;DHT22;49686;51.880;5.632;2023-01-10T07:09:24;3.40;99.90
63537;DHT22;49686;51.880;5.632;2023-01-10T07:11:51;3.40;99.90
63537;DHT22;49686;51.880;5.632;2023-01-10T07:14:18;3.30;99.90
63537;DHT22;49686;51.880;5.632;2023-01-10T07:16:46;3.20;99.90
63537;DHT22;49686;51.880;5.632;2023-01-10T07:19:13;3.10;99.90
63537;DHT22;49686;51.880;5.632;2023-01-10T07:21:40;3.10;99.90
63537;DHT22;49686;51.880;5.632;2023-01-10T07:24:08;3.00;99.90
63537;DHT22;49686;51.880;5.632;2023-01-10T07:26:35;2.90;99.90
63537;DHT22;49686;51.880;5.632;2023-01-10T07:29:01;2.90;99.90
63537;DHT22;49686;51.880;5.632;2023-01-10T07:31:28;2.80;99.90
63537;DHT22;49686;51.880;5.632;2023-01-10T07:33:56;2.80;99.90
63537;DHT22;49686;51.880;5.632;2023-01-10T07:36:23;2.60;99.90
63537;DHT22;49686;51.880;5.632;2023-01-10T07:38:50;2.70;99.90
63537;DHT22;49686;51.880;5.632;2023-01-10T07:41:16;2.50;99.90
63537;DHT22;49686;51.880;5.632;2023-01-10T07:43:43;2.50;99.90
63537;DHT22;49686;51.880;5.632;2023-01-10T07:46:10;2.60;99.90
63537;DHT22;49686;51.880;5.632;2023-01-10T07:48:37;2.70;99.90
63537;DHT22;49686;51.880;5.632;2023-01-10T07:51:06;2.80;99.90
63537;DHT22;49686;51.880;5.632;2023-01-10T07:53:32;2.80;99.90
63537;DHT22;49686;51.880;5.632;2023-01-10T07:56:00;2.80;99.90
63537;DHT22;49686;51.880;5.632;2023-01-10T07:58:28;2.90;99.90
63537;DHT22;49686;51.880;5.632;2023-01-10T08:00:56;2.90;99.90
63537;DHT22;49686;51.880;5.632;2023-01-10T08:03:23;2.90;99.90
63537;DHT22;49686;51.880;5.632;2023-01-10T08:05:56;3.00;99.90
63537;DHT22;49686;51.880;5.632;2023-01-10T08:08:25;3.00;99.90
63537;DHT22;49686;51.880;5.632;2023-01-10T08:10:52;3.00;99.90
63537;DHT22;49686;51.880;5.632;2023-01-10T08:13:19;3.00;99.90
63537;DHT22;49686;51.880;5.632;2023-01-10T08:15:45;3.10;99.90
63537;DHT22;49686;51.880;5.632;2023-01-10T08:18:12;3.10;99.90
63537;DHT22;49686;51.880;5.632;2023-01-10T08:20:39;3.10;99.90
63537;DHT22;49686;51.880;5.632;2023-01-10T08:23:06;3.20;99.90
63537;DHT22;49686;51.880;5.632;2023-01-10T08:25:34;3.20;99.90
63537;DHT22;49686;51.880;5.632;2023-01-10T08:28:05;3.20;99.90
63537;DHT22;49686;51.880;5.632;2023-01-10T08:30:31;3.30;99.90
63537;DHT22;49686;51.880;5.632;2023-01-10T08:33:01;3.30;99.90
63537;DHT22;49686;51.880;5.632;2023-01-10T08:35:27;3.30;99.90
63537;DHT22;49686;51.880;5.632;2023-01-10T08:37:57;3.40;99.90
63537;DHT22;49686;51.880;5.632;2023-01-10T08:40:24;3.40;99.90
63537;DHT22;49686;51.880;5.632;2023-01-10T08:42:57;3.40;99.90
63537;DHT22;49686;51.880;5.632;2023-01-10T08:45:24;3.50;99.90
63537;DHT22;49686;51.880;5.632;2023-01-10T08:47:50;3.50;99.90
63537;DHT22;49686;51.880;5.632;2023-01-10T08:50:18;3.60;99.90
63537;DHT22;49686;51.880;5.632;2023-01-10T08:52:45;3.50;99.90
63537;DHT22;49686;51.880;5.632;2023-01-10T08:55:12;3.60;99.90
63537;DHT22;49686;51.880;5.632;2023-01-10T08:57:39;3.60;99.90
63537;DHT22;49686;51.880;5.632;2023-01-10T09:00:09;3.60;99.90
63537;DHT22;49686;51.880;5.632;2023-01-10T09:02:36;3.50;99.90
63537;DHT22;49686;51.880;5.632;2023-01-10T09:05:03;3.60;99.90
63537;DHT22;49686;51.880;5.632;2023-01-10T09:07:31;3.50;99.90
63537;DHT22;49686;51.880;5.632;2023-01-10T09:09:58;3.50;99.90
63537;DHT22;49686;51.880;5.632;2023-01-10T09:12:25;3.50;99.90
63537;DHT22;49686;51.880;5.632;2023-01-10T09:14:51;3.50;99.90
63537;DHT22;49686;51.880;5.632;2023-01-10T09:17:20;3.60;99.90
63537;DHT22;49686;51.880;5.632;2023-01-10T09:19:47;3.50;99.90
63537;DHT22;49686;51.880;5.632;2023-01-10T09:22:13;3.50;99.90
63537;DHT22;49686;51.880;5.632;2023-01-10T09:24:40;3.40;99.90
63537;DHT22;49686;51.880;5.632;2023-01-10T09:27:07;3.40;99.90
63537;DHT22;49686;51.880;5.632;2023-01-10T09:29:34;3.40;99.90
63537;DHT22;49686;51.880;5.632;2023-01-10T09:32:00;3.40;99.90
63537;DHT22;49686;51.880;5.632;2023-01-10T09:34:29;3.40;99.90
63537;DHT22;49686;51.880;5.632;2023-01-10T09:36:55;3.40;99.90
63537;DHT22;49686;51.880;5.632;2023-01-10T09:39:22;3.40;99.90
63537;DHT22;49686;51.880;5.632;2023-01-10T09:42:05;3.40;99.90
63537;DHT22;49686;51.880;5.632;2023-01-10T09:44:41;3.40;99.90
63537;DHT22;49686;51.880;5.632;2023-01-10T09:47:17;3.30;99.90
63537;DHT22;49686;51.880;5.632;2023-01-10T09:49:58;3.40;99.90
63537;DHT22;49686;51.880;5.632;2023-01-10T09:52:30;3.30;99.90
63537;DHT22;49686;51.880;5.632;2023-01-10T09:55:17;3.30;99.90
63537;DHT22;49686;51.880;5.632;2023-01-10T09:57:46;3.40;99.90
63537;DHT22;49686;51.880;5.632;2023-01-10T10:00:17;3.40;99.90
63537;DHT22;49686;51.880;5.632;2023-01-10T10:02:48;3.40;99.90
63537;DHT22;49686;51.880;5.632;2023-01-10T10:05:18;3.40;99.90
63537;DHT22;49686;51.880;5.632;2023-01-10T10:07:51;3.40;99.90
63537;DHT22;49686;51.880;5.632;2023-01-10T10:10:22;3.40;99.90
63537;DHT22;49686;51.880;5.632;2023-01-10T10:13:00;3.40;99.90
63537;DHT22;49686;51.880;5.632;2023-01-10T10:15:34;3.50;99.90
63537;DHT22;49686;51.880;5.632;2023-01-10T10:18:12;3.50;99.90
63537;DHT22;49686;51.880;5.632;2023-01-10T10:20:50;3.50;99.90
63537;DHT22;49686;51.880;5.632;2023-01-10T10:23:22;3.60;99.90
63537;DHT22;49686;51.880;5.632;2023-01-10T10:26:01;3.50;99.90
63537;DHT22;49686;51.880;5.632;2023-01-10T10:28:58;3.60;99.90
63537;DHT22;49686;51.880;5.632;2023-01-10T10:31:32;3.70;99.90
63537;DHT22;49686;51.880;5.632;2023-01-10T10:34:10;3.60;99.90
63537;DHT22;49686;51.880;5.632;2023-01-10T10:36:42;3.70;99.90
63537;DHT22;49686;51.880;5.632;2023-01-10T10:39:14;3.70;99.90
63537;DHT22;49686;51.880;5.632;2023-01-10T10:41:44;3.80;99.90
63537;DHT22;49686;51.880;5.632;2023-01-10T10:44:25;3.80;99.90
63537;DHT22;49686;51.880;5.632;2023-01-10T10:46:56;3.80;99.90
63537;DHT22;49686;51.880;5.632;2023-01-10T10:49:25;3.90;99.90
63537;DHT22;49686;51.880;5.632;2023-01-10T10:51:56;3.90;99.90
63537;DHT22;49686;51.880;5.632;2023-01-10T10:54:24;3.90;99.90
63537;DHT22;49686;51.880;5.632;2023-01-10T10:56:51;4.00;99.90
63537;DHT22;49686;51.880;5.632;2023-01-10T10:59:20;4.00;99.90
63537;DHT22;49686;51.880;5.632;2023-01-10T11:01:48;4.00;99.90
63537;DHT22;49686;51.880;5.632;2023-01-10T11:04:18;4.00;99.90
63537;DHT22;49686;51.880;5.632;2023-01-10T11:06:46;4.10;99.90
63537;DHT22;49686;51.880;5.632;2023-01-10T11:09:17;4.10;99.90
63537;DHT22;49686;51.880;5.632;2023-01-10T11:11:45;4.10;99.90
63537;DHT22;49686;51.880;5.632;2023-01-10T11:14:12;4.10;99.90
63537;DHT22;49686;51.880;5.632;2023-01-10T11:16:41;4.10;99.90
63537;DHT22;49686;51.880;5.632;2023-01-10T11:19:20;4.10;99.90
63537;DHT22;49686;51.880;5.632;2023-01-10T11:21:51;4.10;99.90
63537;DHT22;49686;51.880;5.632;2023-01-10T11:24:24;4.20;99.90
63537;DHT22;49686;51.880;5.632;2023-01-10T11:26:52;4.10;99.90
63537;DHT22;49686;51.880;5.632;2023-01-10T11:29:24;4.20;99.90
63537;DHT22;49686;51.880;5.632;2023-01-10T11:31:52;4.20;99.90
63537;DHT22;49686;51.880;5.632;2023-01-10T11:34:22;4.30;99.90
63537;DHT22;49686;51.880;5.632;2023-01-10T11:36:56;4.30;99.90
63537;DHT22;49686;51.880;5.632;2023-01-10T11:39:25;4.30;99.90
63537;DHT22;49686;51.880;5.632;2023-01-10T11:41:52;4.30;99.90
63537;DHT22;49686;51.880;5.632;2023-01-10T11:44:24;4.30;99.90
63537;DHT22;49686;51.880;5.632;2023-01-10T11:46:53;4.30;99.90
63537;DHT22;49686;51.880;5.632;2023-01-10T11:49:34;4.40;99.90
63537;DHT22;49686;51.880;5.632;2023-01-10T11:52:04;4.40;99.90
63537;DHT22;49686;51.880;5.632;2023-01-10T11:54:33;4.40;99.90
63537;DHT22;49686;51.880;5.632;2023-01-10T11:57:03;4.40;99.90
63537;DHT22;49686;51.880;5.632;2023-01-10T11:59:32;4.40;99.90
63537;DHT22;49686;51.880;5.632;2023-01-10T12:02:01;4.40;99.90
63537;DHT22;49686;51.880;5.632;2023-01-10T12:04:31;4.40;99.90
63537;DHT22;49686;51.880;5.632;2023-01-10T12:07:02;4.40;99.90
63537;DHT22;49686;51.880;5.632;2023-01-10T12:09:39;4.50;99.90
63537;DHT22;49686;51.880;5.632;2023-01-10T12:12:16;4.50;99.90
63537;DHT22;49686;51.880;5.632;2023-01-10T12:14:44;4.50;99.90
63537;DHT22;49686;51.880;5.632;2023-01-10T12:17:23;4.50;99.90
63537;DHT22;49686;51.880;5.632;2023-01-10T12:19:52;4.50;99.90
63537;DHT22;49686;51.880;5.632;2023-01-10T12:22:21;4.50;99.90
63537;DHT22;49686;51.880;5.632;2023-01-10T12:24:53;4.50;99.90
63537;DHT22;49686;51.880;5.632;2023-01-10T12:27:23;4.50;99.90
63537;DHT22;49686;51.880;5.632;2023-01-10T12:29:57;4.50;99.90
63537;DHT22;49686;51.880;5.632;2023-01-10T12:32:29;4.50;99.90
63537;DHT22;49686;51.880;5.632;2023-01-10T12:35:00;4.50;99.90
63537;DHT22;49686;51.880;5.632;2023-01-10T12:37:31;4.50;99.90
63537;DHT22;49686;51.880;5.632;2023-01-10T12:40:10;4.50;99.90
63537;DHT22;49686;51.880;5.632;2023-01-10T12:42:48;4.50;99.90
63537;DHT22;49686;51.880;5.632;2023-01-10T12:45:22;4.50;99.90
63537;DHT22;49686;51.880;5.632;2023-01-10T12:47:58;4.60;99.90
63537;DHT22;49686;51.880;5.632;2023-01-10T12:50:28;4.60;99.90
63537;DHT22;49686;51.880;5.632;2023-01-10T12:52:59;4.60;99.90
63537;DHT22;49686;51.880;5.632;2023-01-10T12:55:33;4.60;99.90
63537;DHT22;49686;51.880;5.632;2023-01-10T12:58:02;4.60;99.90
63537;DHT22;49686;51.880;5.632;2023-01-10T13:00:32;4.70;99.90
63537;DHT22;49686;51.880;5.632;2023-01-10T13:03:17;4.70;99.90
63537;DHT22;49686;51.880;5.632;2023-01-10T13:05:46;4.70;99.90
63537;DHT22;49686;51.880;5.632;2023-01-10T13:08:15;4.70;99.90
63537;DHT22;49686;51.880;5.632;2023-01-10T13:10:45;4.70;99.90
63537;DHT22;49686;51.880;5.632;2023-01-10T13:13:17;4.70;99.90
63537;DHT22;49686;51.880;5.632;2023-01-10T13:15:50;4.80;99.90
63537;DHT22;49686;51.880;5.632;2023-01-10T13:18:24;4.80;99.90
63537;DHT22;49686;51.880;5.632;2023-01-10T13:21:02;4.80;99.90
63537;DHT22;49686;51.880;5.632;2023-01-10T13:23:31;4.80;99.90
63537;DHT22;49686;51.880;5.632;2023-01-10T13:26:04;4.80;99.90
63537;DHT22;49686;51.880;5.632;2023-01-10T13:28:33;4.90;99.90
63537;DHT22;49686;51.880;5.632;2023-01-10T13:31:03;4.90;99.90
63537;DHT22;49686;51.880;5.632;2023-01-10T13:33:32;4.90;99.90
63537;DHT22;49686;51.880;5.632;2023-01-10T13:36:08;4.90;99.90
63537;DHT22;49686;51.880;5.632;2023-01-10T13:38:43;5.00;99.90
63537;DHT22;49686;51.880;5.632;2023-01-10T13:41:14;5.00;99.90
63537;DHT22;49686;51.880;5.632;2023-01-10T13:44:09;5.00;99.90
63537;DHT22;49686;51.880;5.632;2023-01-10T13:46:42;5.00;99.90
63537;DHT22;49686;51.880;5.632;2023-01-10T13:52:36;5.10;99.90
63537;DHT22;49686;51.880;5.632;2023-01-10T13:55:26;5.10;99.90
63537;DHT22;49686;51.880;5.632;2023-01-10T13:57:56;5.10;99.90
63537;DHT22;49686;51.880;5.632;2023-01-10T14:00:42;5.20;99.90
63537;DHT22;49686;51.880;5.632;2023-01-10T14:03:43;5.10;99.90
63537;DHT22;49686;51.880;5.632;2023-01-10T14:06:18;5.10;99.90
63537;DHT22;49686;51.880;5.632;2023-01-10T14:08:49;5.20;99.90
63537;DHT22;49686;51.880;5.632;2023-01-10T14:11:17;5.20;99.90
63537;DHT22;49686;51.880;5.632;2023-01-10T14:13:51;5.20;99.90
63537;DHT22;49686;51.880;5.632;2023-01-10T14:16:34;5.20;99.90
63537;DHT22;49686;51.880;5.632;2023-01-10T14:19:04;5.20;99.90
63537;DHT22;49686;51.880;5.632;2023-01-10T14:21:37;5.20;99.90
63537;DHT22;49686;51.880;5.632;2023-01-10T14:24:19;5.30;99.90
63537;DHT22;49686;51.880;5.632;2023-01-10T14:26:50;5.30;99.90
63537;DHT22;49686;51.880;5.632;2023-01-10T14:29:18;5.20;99.90
63537;DHT22;49686;51.880;5.632;2023-01-10T14:31:47;5.10;99.90
63537;DHT22;49686;51.880;5.632;2023-01-10T14:34:19;5.00;99.90
63537;DHT22;49686;51.880;5.632;2023-01-10T14:36:52;5.00;99.90
63537;DHT22;49686;51.880;5.632;2023-01-10T14:39:21;4.90;99.90
63537;DHT22;49686;51.880;5.632;2023-01-10T14:41:50;4.80;99.90
63537;DHT22;49686;51.880;5.632;2023-01-10T14:44:23;4.70;99.90
63537;DHT22;49686;51.880;5.632;2023-01-10T14:46:53;4.60;99.90
63537;DHT22;49686;51.880;5.632;2023-01-10T14:49:23;4.60;99.90
63537;DHT22;49686;51.880;5.632;2023-01-10T14:51:51;4.60;99.90
63537;DHT22;49686;51.880;5.632;2023-01-10T14:54:19;4.60;99.90
63537;DHT22;49686;51.880;5.632;2023-01-10T14:56:47;4.60;99.90
63537;DHT22;49686;51.880;5.632;2023-01-10T14:59:25;4.50;99.90
63537;DHT22;49686;51.880;5.632;2023-01-10T15:01:54;4.40;99.90
63537;DHT22;49686;51.880;5.632;2023-01-10T15:04:24;4.40;99.90
63537;DHT22;49686;51.880;5.632;2023-01-10T15:06:54;4.40;99.90
63537;DHT22;49686;51.880;5.632;2023-01-10T15:09:20;4.30;99.90
63537;DHT22;49686;51.880;5.632;2023-01-10T15:11:48;4.30;99.90
63537;DHT22;49686;51.880;5.632;2023-01-10T15:14:17;4.30;99.90
63537;DHT22;49686;51.880;5.632;2023-01-10T15:16:47;4.30;99.90
63537;DHT22;49686;51.880;5.632;2023-01-10T15:19:19;4.20;99.90
63537;DHT22;49686;51.880;5.632;2023-01-10T15:21:47;4.10;99.90
63537;DHT22;49686;51.880;5.632;2023-01-10T15:24:29;4.10;99.90
63537;DHT22;49686;51.880;5.632;2023-01-10T15:26:59;4.10;99.90
63537;DHT22;49686;51.880;5.632;2023-01-10T15:29:27;4.10;99.90
63537;DHT22;49686;51.880;5.632;2023-01-10T15:32:09;4.10;99.90
63537;DHT22;49686;51.880;5.632;2023-01-10T15:34:37;4.00;99.90
63537;DHT22;49686;51.880;5.632;2023-01-10T15:37:05;4.00;99.90
63537;DHT22;49686;51.880;5.632;2023-01-10T15:39:35;3.90;99.90
63537;DHT22;49686;51.880;5.632;2023-01-10T15:42:06;4.00;99.90
63537;DHT22;49686;51.880;5.632;2023-01-10T15:44:38;3.90;99.90
63537;DHT22;49686;51.880;5.632;2023-01-10T15:47:36;3.90;99.90
63537;DHT22;49686;51.880;5.632;2023-01-10T15:50:18;4.00;99.90
63537;DHT22;49686;51.880;5.632;2023-01-10T15:52:51;3.90;99.90
63537;DHT22;49686;51.880;5.632;2023-01-10T15:55:37;3.80;99.90
63537;DHT22;49686;51.880;5.632;2023-01-10T15:58:04;3.80;99.90
63537;DHT22;49686;51.880;5.632;2023-01-10T16:00:31;3.80;99.90
63537;DHT22;49686;51.880;5.632;2023-01-10T16:03:00;3.80;99.90
63537;DHT22;49686;51.880;5.632;2023-01-10T16:05:27;3.80;99.90
63537;DHT22;49686;51.880;5.632;2023-01-10T16:07:54;3.80;99.90
63537;DHT22;49686;51.880;5.632;2023-01-10T16:10:22;3.80;99.90
63537;DHT22;49686;51.880;5.632;2023-01-10T16:12:50;3.80;99.90
63537;DHT22;49686;51.880;5.632;2023-01-10T16:15:19;3.80;99.90
63537;DHT22;49686;51.880;5.632;2023-01-10T16:17:47;3.90;99.90